Big Timber, Montana
Current Conditions -  °F | °C
As of 6:53 AM on Sunday 21 Dec 2014 (Local Time) from KLVM Reporting Station
Overcast Overcast  
Wind Chill: 32°   Ceiling: 6000
Heat Index: 43°   Visibility: 10mi
Dew Point: 28°   Wind: 33mph
Humidity: 56%   Direction: 220°SW
Pressure: 29.47"   Gusts: 47mph
Location:  45.83°N, 109.96°W
Report Text: KLVM 211353Z AUTO 22029G41KT 10SM SCT049 OVC060 06/M02 A2947 RMK AO2 PK WND 23041/1352 SLP977 T00611022
Loading
Personal Weather Stations






























Interactive Weather Map New forecast layout! Learn more

10-Day Weather Forecast

Advertisements
Track Severe Weather on mobile